Home   Weather   Portugal   Albufeira   Past weeks
Flag for Portugal

Past Weather in Albufeira, Faro, Portugal — Yesterday and Last 2 Weeks

Currently: 66 °F. Clear. (Weather station: Faro / Aeroporto, Portugal). See more current weather

Past Weather in Albufeira — Graph

°F

Albufeira Temperature Yesterday

Maximum temperature yesterday: 73 °F (at 1:30 pm)
Minimum temperature yesterday: 64 °F (at 12:00 am)
Average temperature yesterday: 69 °F

High & Low Weather Summary for the Past Weeks

 TemperatureHumidityPressure
High86 °F (Jun 8, 9:30 am)100% (May 31, 5:00 am)30.18 "Hg (May 31, 5:00 am)
Low59 °F (Jun 2, 2:30 am)23% (Jun 8, 7:30 pm)29.86 "Hg (May 31, 4:00 am)
Average70 °F69%30.02 "Hg
* Reported May 30 9:00 pm — Jun 14 9:00 pm, Albufeira. Weather by CustomWeather, © 2021

Note: Actual official high and low records may vary slightly from our data, if they occured in-between our weather recording intervals... More about our weather records

Albufeira Weather History for the Previous 24 Hours

Scroll right to see more
 ConditionsComfort  
Time TempWeatherWind HumidityBarometerVisibility
9:00 pm
Mon, Jun 14
66 °FClear.6 mph94%30.01 "Hg10 mi
8:30 pm68 °FSunny.8 mph88%30.01 "Hg10 mi
8:00 pm68 °FSunny.10 mph88%30.01 "Hg10 mi
7:30 pm70 °FSunny.10 mph83%30.01 "Hg10 mi
7:00 pm70 °FSunny.10 mph83%30.01 "Hg10 mi
6:30 pm70 °FSunny.13 mph83%30.01 "Hg10 mi
6:00 pm70 °FPassing clouds.15 mph83%30.01 "HgN/A
5:30 pm70 °FPassing clouds.13 mph83%30.04 "HgN/A
5:00 pm70 °FPassing clouds.14 mph83%30.04 "HgN/A
4:30 pm70 °FPassing clouds.13 mph78%30.07 "HgN/A
4:00 pm70 °FPassing clouds.13 mph83%30.07 "HgN/A
3:30 pm70 °FPassing clouds.14 mph78%30.07 "HgN/A
3:00 pm70 °FPassing clouds.13 mph78%30.09 "HgN/A
2:30 pm70 °FPassing clouds.13 mph78%30.09 "HgN/A
2:00 pm70 °FPassing clouds.12 mph78%30.09 "HgN/A
1:30 pm70 °FPassing clouds.10 mph78%30.09 "HgN/A
1:00 pm70 °FPassing clouds.10 mph78%30.09 "HgN/A
12:30 pm70 °FPassing clouds.9 mph78%30.12 "HgN/A
12:00 pm70 °FPassing clouds.10 mph78%30.09 "HgN/A
11:30 am68 °FPassing clouds.9 mph83%30.09 "HgN/A
11:00 am68 °FPassing clouds.8 mph83%30.09 "HgN/A
10:30 am68 °FPassing clouds.7 mph83%30.09 "HgN/A
10:00 am68 °FPassing clouds.8 mph83%30.09 "HgN/A
9:30 am68 °FPassing clouds.6 mph83%30.09 "HgN/A
9:00 am68 °FPassing clouds.5 mph83%30.09 "HgN/A
8:30 am66 °FPassing clouds.3 mph88%30.09 "HgN/A
8:00 am66 °FSunny.2 mph88%30.09 "Hg10 mi
7:30 am66 °FSunny.3 mph83%30.09 "Hg10 mi
7:00 am64 °FSunny.6 mph88%30.09 "Hg10 mi
6:30 am63 °FSunny.5 mph88%30.07 "Hg10 mi
6:00 am63 °FClear.3 mph88%30.09 "Hg10 mi
5:30 am63 °FClear.2 mph94%30.07 "Hg10 mi
5:00 am63 °FClear.2 mph88%30.07 "Hg10 mi
4:30 am63 °FClear.2 mph88%30.07 "Hg10 mi
4:00 am63 °FClear.3 mph94%30.07 "Hg10 mi
3:30 am64 °FClear.6 mph88%30.07 "Hg10 mi
3:00 am64 °FClear.7 mph88%30.07 "Hg10 mi
2:30 am64 °FClear.7 mph88%30.07 "Hg10 mi
2:00 am66 °FClear.8 mph83%30.07 "Hg10 mi
1:30 am64 °FClear.8 mph88%30.09 "Hg10 mi
1:00 am66 °FClear.8 mph88%30.09 "Hg10 mi
12:30 am66 °FClear.9 mph88%30.09 "Hg10 mi
12:00 am66 °FClear.10 mph94%30.09 "Hg10 mi
11:30 pm
Sun, Jun 13
66 °FClear.12 mph94%30.09 "Hg10 mi
11:00 pm66 °FClear.12 mph94%30.09 "Hg10 mi
10:30 pm66 °FClear.13 mph94%30.09 "Hg10 mi
10:00 pm66 °FClear.14 mph94%30.07 "Hg10 mi
Weather by CustomWeather, © 2021

See weather overview